Port Lavaca, Texas
Current Conditions -  °F | °C
As of 9:55 PM on Saturday 20 Dec 2014 (Local Time) from KPKV Reporting Station
Overcast Overcast  
Wind Chill: 53°   Ceiling: 1000
Heat Index: 53°   Visibility: 7mi
Dew Point: 52°   Wind: 7mph
Humidity: 95%   Direction: 360°N
Pressure: 30.18"   Gusts: NA
Location:  28.62°N, 96.62°W
Report Text: KPKV 210355Z AUTO 36006KT 7SM OVC010 12/11 A3018 RMK AO2 T01160109
Loading
Personal Weather Stations






























Interactive Weather Map New forecast layout! Learn more

10-Day Weather Forecast

Advertisements
Track Severe Weather on mobile